sensor_id;sensor_type;location;lat;lon;timestamp;P1;durP1;ratioP1;P2;durP2;ratioP2
75064;SDS011;63646;49.110;9.140;2022-10-16T00:01:08;4.25;;;1.80;;
75064;SDS011;63646;49.110;9.140;2022-10-16T00:03:36;4.30;;;2.13;;
75064;SDS011;63646;49.110;9.140;2022-10-16T00:06:03;4.05;;;1.70;;
75064;SDS011;63646;49.110;9.140;2022-10-16T00:08:29;3.90;;;1.77;;
75064;SDS011;63646;49.110;9.140;2022-10-16T00:10:58;4.30;;;1.92;;
75064;SDS011;63646;49.110;9.140;2022-10-16T00:13:36;5.88;;;1.85;;
75064;SDS011;63646;49.110;9.140;2022-10-16T00:16:02;4.00;;;1.83;;
75064;SDS011;63646;49.110;9.140;2022-10-16T00:20:54;2.00;;;1.35;;
75064;SDS011;63646;49.110;9.140;2022-10-16T00:23:20;3.85;;;1.60;;
75064;SDS011;63646;49.110;9.140;2022-10-16T00:25:54;4.20;;;1.48;;
75064;SDS011;63646;49.110;9.140;2022-10-16T00:30:49;3.93;;;1.60;;
75064;SDS011;63646;49.110;9.140;2022-10-16T00:33:15;4.60;;;1.77;;
75064;SDS011;63646;49.110;9.140;2022-10-16T00:35:40;4.00;;;1.63;;
75064;SDS011;63646;49.110;9.140;2022-10-16T00:38:05;2.33;;;1.47;;
75064;SDS011;63646;49.110;9.140;2022-10-16T00:40:31;4.47;;;1.73;;
75064;SDS011;63646;49.110;9.140;2022-10-16T00:42:56;2.83;;;1.60;;
75064;SDS011;63646;49.110;9.140;2022-10-16T00:45:22;3.22;;;1.60;;
75064;SDS011;63646;49.110;9.140;2022-10-16T00:47:47;3.67;;;1.77;;
75064;SDS011;63646;49.110;9.140;2022-10-16T00:50:18;2.67;;;1.52;;
75064;SDS011;63646;49.110;9.140;2022-10-16T00:52:51;3.08;;;1.42;;
75064;SDS011;63646;49.110;9.140;2022-10-16T00:55:17;3.28;;;1.40;;
75064;SDS011;63646;49.110;9.140;2022-10-16T00:57:43;3.08;;;1.77;;
75064;SDS011;63646;49.110;9.140;2022-10-16T01:00:11;2.88;;;1.50;;
75064;SDS011;63646;49.110;9.140;2022-10-16T01:02:38;3.05;;;1.58;;
75064;SDS011;63646;49.110;9.140;2022-10-16T01:05:04;3.70;;;1.50;;
75064;SDS011;63646;49.110;9.140;2022-10-16T01:15:19;2.65;;;1.70;;
75064;SDS011;63646;49.110;9.140;2022-10-16T01:20:46;3.38;;;1.55;;
75064;SDS011;63646;49.110;9.140;2022-10-16T01:26:15;3.08;;;1.50;;
75064;SDS011;63646;49.110;9.140;2022-10-16T01:28:57;4.20;;;1.35;;
75064;SDS011;63646;49.110;9.140;2022-10-16T01:31:32;2.67;;;1.33;;
75064;SDS011;63646;49.110;9.140;2022-10-16T01:36:32;2.55;;;1.63;;
75064;SDS011;63646;49.110;9.140;2022-10-16T01:39:02;2.25;;;1.23;;
75064;SDS011;63646;49.110;9.140;2022-10-16T01:41:31;3.20;;;1.45;;
75064;SDS011;63646;49.110;9.140;2022-10-16T01:44:02;3.58;;;1.40;;
75064;SDS011;63646;49.110;9.140;2022-10-16T01:46:36;3.83;;;1.42;;
75064;SDS011;63646;49.110;9.140;2022-10-16T01:49:04;2.88;;;1.50;;
75064;SDS011;63646;49.110;9.140;2022-10-16T01:51:34;2.88;;;1.33;;
75064;SDS011;63646;49.110;9.140;2022-10-16T01:54:00;3.45;;;1.40;;
75064;SDS011;63646;49.110;9.140;2022-10-16T01:56:27;2.28;;;1.42;;
75064;SDS011;63646;49.110;9.140;2022-10-16T01:58:58;3.03;;;1.30;;
75064;SDS011;63646;49.110;9.140;2022-10-16T02:01:29;2.42;;;1.35;;
75064;SDS011;63646;49.110;9.140;2022-10-16T02:03:57;2.45;;;1.45;;
75064;SDS011;63646;49.110;9.140;2022-10-16T02:06:28;3.40;;;1.60;;
75064;SDS011;63646;49.110;9.140;2022-10-16T02:08:54;2.28;;;1.17;;
75064;SDS011;63646;49.110;9.140;2022-10-16T02:11:20;3.80;;;1.50;;
75064;SDS011;63646;49.110;9.140;2022-10-16T02:13:46;3.43;;;1.40;;
75064;SDS011;63646;49.110;9.140;2022-10-16T02:16:16;2.55;;;1.30;;
75064;SDS011;63646;49.110;9.140;2022-10-16T02:18:42;2.45;;;1.38;;
75064;SDS011;63646;49.110;9.140;2022-10-16T02:21:13;3.53;;;1.35;;
75064;SDS011;63646;49.110;9.140;2022-10-16T02:27:38;2.33;;;1.40;;
75064;SDS011;63646;49.110;9.140;2022-10-16T02:29:29;2.72;;;1.23;;
75064;SDS011;63646;49.110;9.140;2022-10-16T02:32:01;2.92;;;1.33;;
75064;SDS011;63646;49.110;9.140;2022-10-16T02:34:29;4.65;;;1.60;;
75064;SDS011;63646;49.110;9.140;2022-10-16T02:36:57;1.58;;;1.25;;
75064;SDS011;63646;49.110;9.140;2022-10-16T02:39:26;2.65;;;1.33;;
75064;SDS011;63646;49.110;9.140;2022-10-16T02:41:53;2.00;;;1.40;;
75064;SDS011;63646;49.110;9.140;2022-10-16T02:44:18;4.00;;;1.48;;
75064;SDS011;63646;49.110;9.140;2022-10-16T02:46:43;1.77;;;1.50;;
75064;SDS011;63646;49.110;9.140;2022-10-16T02:49:09;3.78;;;1.40;;
75064;SDS011;63646;49.110;9.140;2022-10-16T02:51:34;3.40;;;1.73;;
75064;SDS011;63646;49.110;9.140;2022-10-16T02:54:01;2.47;;;1.40;;
75064;SDS011;63646;49.110;9.140;2022-10-16T02:56:27;2.72;;;1.50;;
75064;SDS011;63646;49.110;9.140;2022-10-16T02:58:52;1.77;;;1.15;;
75064;SDS011;63646;49.110;9.140;2022-10-16T03:01:17;2.17;;;1.30;;
75064;SDS011;63646;49.110;9.140;2022-10-16T03:03:43;2.22;;;1.40;;
75064;SDS011;63646;49.110;9.140;2022-10-16T03:06:08;2.90;;;1.27;;
75064;SDS011;63646;49.110;9.140;2022-10-16T03:08:34;2.22;;;1.27;;
75064;SDS011;63646;49.110;9.140;2022-10-16T03:10:59;2.97;;;1.40;;
75064;SDS011;63646;49.110;9.140;2022-10-16T03:13:24;3.15;;;2.10;;
75064;SDS011;63646;49.110;9.140;2022-10-16T03:15:50;2.33;;;1.50;;
75064;SDS011;63646;49.110;9.140;2022-10-16T03:18:15;2.05;;;1.73;;
75064;SDS011;63646;49.110;9.140;2022-10-16T03:20:42;2.63;;;1.20;;
75064;SDS011;63646;49.110;9.140;2022-10-16T03:23:08;2.58;;;1.48;;
75064;SDS011;63646;49.110;9.140;2022-10-16T03:25:33;2.63;;;1.25;;
75064;SDS011;63646;49.110;9.140;2022-10-16T03:27:59;1.73;;;1.17;;
75064;SDS011;63646;49.110;9.140;2022-10-16T03:30:24;2.53;;;1.30;;
75064;SDS011;63646;49.110;9.140;2022-10-16T03:32:49;2.80;;;1.38;;
75064;SDS011;63646;49.110;9.140;2022-10-16T03:35:18;3.53;;;1.60;;
75064;SDS011;63646;49.110;9.140;2022-10-16T03:37:44;2.40;;;1.25;;
75064;SDS011;63646;49.110;9.140;2022-10-16T03:40:09;2.67;;;1.33;;
75064;SDS011;63646;49.110;9.140;2022-10-16T03:42:35;2.67;;;1.40;;
75064;SDS011;63646;49.110;9.140;2022-10-16T03:45:00;2.83;;;1.30;;
75064;SDS011;63646;49.110;9.140;2022-10-16T03:47:26;2.47;;;1.30;;
75064;SDS011;63646;49.110;9.140;2022-10-16T03:49:51;3.20;;;1.40;;
75064;SDS011;63646;49.110;9.140;2022-10-16T03:52:17;2.27;;;1.17;;
75064;SDS011;63646;49.110;9.140;2022-10-16T03:54:42;1.83;;;1.20;;
75064;SDS011;63646;49.110;9.140;2022-10-16T03:57:08;2.20;;;1.05;;
75064;SDS011;63646;49.110;9.140;2022-10-16T03:59:33;1.73;;;1.30;;
75064;SDS011;63646;49.110;9.140;2022-10-16T04:01:59;3.15;;;1.20;;
75064;SDS011;63646;49.110;9.140;2022-10-16T04:04:24;2.13;;;1.23;;
75064;SDS011;63646;49.110;9.140;2022-10-16T04:06:50;2.45;;;1.27;;
75064;SDS011;63646;49.110;9.140;2022-10-16T04:09:15;3.17;;;1.45;;
75064;SDS011;63646;49.110;9.140;2022-10-16T04:11:40;1.77;;;1.07;;
75064;SDS011;63646;49.110;9.140;2022-10-16T04:14:06;3.07;;;1.10;;
75064;SDS011;63646;49.110;9.140;2022-10-16T04:16:31;2.42;;;1.27;;
75064;SDS011;63646;49.110;9.140;2022-10-16T04:18:56;3.57;;;1.47;;
75064;SDS011;63646;49.110;9.140;2022-10-16T04:21:22;1.70;;;1.03;;
75064;SDS011;63646;49.110;9.140;2022-10-16T04:23:47;2.17;;;1.10;;
75064;SDS011;63646;49.110;9.140;2022-10-16T04:26:13;1.75;;;1.05;;
75064;SDS011;63646;49.110;9.140;2022-10-16T04:28:38;2.40;;;1.50;;
75064;SDS011;63646;49.110;9.140;2022-10-16T04:31:04;1.77;;;1.20;;
75064;SDS011;63646;49.110;9.140;2022-10-16T04:33:30;1.20;;;1.05;;
75064;SDS011;63646;49.110;9.140;2022-10-16T04:35:56;2.17;;;1.35;;
75064;SDS011;63646;49.110;9.140;2022-10-16T04:38:25;2.10;;;1.10;;
75064;SDS011;63646;49.110;9.140;2022-10-16T04:40:51;2.38;;;1.15;;
75064;SDS011;63646;49.110;9.140;2022-10-16T04:43:17;1.88;;;1.20;;
75064;SDS011;63646;49.110;9.140;2022-10-16T04:45:43;3.25;;;1.33;;
75064;SDS011;63646;49.110;9.140;2022-10-16T04:48:08;1.60;;;1.50;;
75064;SDS011;63646;49.110;9.140;2022-10-16T04:50:34;1.70;;;1.40;;
75064;SDS011;63646;49.110;9.140;2022-10-16T04:52:59;1.73;;;1.30;;
75064;SDS011;63646;49.110;9.140;2022-10-16T04:55:24;1.73;;;1.38;;
75064;SDS011;63646;49.110;9.140;2022-10-16T04:57:50;3.80;;;1.27;;
75064;SDS011;63646;49.110;9.140;2022-10-16T05:00:15;2.53;;;1.20;;
75064;SDS011;63646;49.110;9.140;2022-10-16T05:02:41;1.85;;;1.20;;
75064;SDS011;63646;49.110;9.140;2022-10-16T05:05:06;3.10;;;1.23;;
75064;SDS011;63646;49.110;9.140;2022-10-16T05:07:32;1.83;;;1.15;;
75064;SDS011;63646;49.110;9.140;2022-10-16T05:09:57;1.77;;;1.53;;
75064;SDS011;63646;49.110;9.140;2022-10-16T05:12:22;1.67;;;1.20;;
75064;SDS011;63646;49.110;9.140;2022-10-16T05:14:48;1.50;;;1.13;;
75064;SDS011;63646;49.110;9.140;2022-10-16T05:17:13;2.65;;;1.27;;
75064;SDS011;63646;49.110;9.140;2022-10-16T05:19:39;1.73;;;1.10;;
75064;SDS011;63646;49.110;9.140;2022-10-16T05:22:04;1.45;;;1.08;;
75064;SDS011;63646;49.110;9.140;2022-10-16T05:24:29;3.63;;;1.40;;
75064;SDS011;63646;49.110;9.140;2022-10-16T05:26:55;3.50;;;1.17;;
75064;SDS011;63646;49.110;9.140;2022-10-16T05:29:20;2.30;;;1.45;;
75064;SDS011;63646;49.110;9.140;2022-10-16T05:31:46;1.83;;;1.15;;
75064;SDS011;63646;49.110;9.140;2022-10-16T05:34:14;2.40;;;1.30;;
75064;SDS011;63646;49.110;9.140;2022-10-16T05:36:39;2.88;;;1.00;;
75064;SDS011;63646;49.110;9.140;2022-10-16T05:39:05;4.03;;;1.23;;
75064;SDS011;63646;49.110;9.140;2022-10-16T05:41:30;1.67;;;0.95;;
75064;SDS011;63646;49.110;9.140;2022-10-16T05:43:56;3.25;;;1.05;;
75064;SDS011;63646;49.110;9.140;2022-10-16T05:46:22;3.23;;;1.27;;
75064;SDS011;63646;49.110;9.140;2022-10-16T05:48:47;2.90;;;1.10;;
75064;SDS011;63646;49.110;9.140;2022-10-16T05:51:13;3.17;;;1.07;;
75064;SDS011;63646;49.110;9.140;2022-10-16T05:53:39;4.85;;;1.55;;
75064;SDS011;63646;49.110;9.140;2022-10-16T05:58:35;2.88;;;1.20;;
75064;SDS011;63646;49.110;9.140;2022-10-16T06:01:03;3.85;;;1.48;;
75064;SDS011;63646;49.110;9.140;2022-10-16T06:03:32;3.65;;;1.20;;
75064;SDS011;63646;49.110;9.140;2022-10-16T06:05:58;3.92;;;1.40;;
75064;SDS011;63646;49.110;9.140;2022-10-16T06:08:23;4.28;;;1.40;;
75064;SDS011;63646;49.110;9.140;2022-10-16T06:10:49;7.78;;;1.20;;
75064;SDS011;63646;49.110;9.140;2022-10-16T06:13:25;6.28;;;1.35;;
75064;SDS011;63646;49.110;9.140;2022-10-16T06:15:50;3.00;;;1.00;;
75064;SDS011;63646;49.110;9.140;2022-10-16T06:18:16;2.00;;;1.00;;
75064;SDS011;63646;49.110;9.140;2022-10-16T06:20:41;3.20;;;1.40;;
75064;SDS011;63646;49.110;9.140;2022-10-16T06:23:06;6.00;;;1.40;;
75064;SDS011;63646;49.110;9.140;2022-10-16T06:25:32;5.35;;;1.70;;
75064;SDS011;63646;49.110;9.140;2022-10-16T06:27:57;8.80;;;1.50;;
75064;SDS011;63646;49.110;9.140;2022-10-16T06:30:22;11.52;;;1.48;;
75064;SDS011;63646;49.110;9.140;2022-10-16T06:32:48;8.05;;;1.38;;
75064;SDS011;63646;49.110;9.140;2022-10-16T06:35:13;7.33;;;1.40;;
75064;SDS011;63646;49.110;9.140;2022-10-16T06:37:38;7.72;;;1.67;;
75064;SDS011;63646;49.110;9.140;2022-10-16T06:40:04;14.10;;;1.52;;
75064;SDS011;63646;49.110;9.140;2022-10-16T06:42:30;5.68;;;1.48;;
75064;SDS011;63646;49.110;9.140;2022-10-16T06:44:55;10.60;;;1.60;;
75064;SDS011;63646;49.110;9.140;2022-10-16T06:47:21;6.00;;;1.45;;
75064;SDS011;63646;49.110;9.140;2022-10-16T06:49:46;7.05;;;1.80;;
75064;SDS011;63646;49.110;9.140;2022-10-16T06:52:12;6.88;;;1.70;;
75064;SDS011;63646;49.110;9.140;2022-10-16T06:54:37;8.10;;;1.38;;
75064;SDS011;63646;49.110;9.140;2022-10-16T06:57:02;5.53;;;1.47;;
75064;SDS011;63646;49.110;9.140;2022-10-16T06:59:28;2.55;;;1.23;;
75064;SDS011;63646;49.110;9.140;2022-10-16T07:01:53;3.37;;;1.50;;
75064;SDS011;63646;49.110;9.140;2022-10-16T07:04:18;4.68;;;1.30;;
75064;SDS011;63646;49.110;9.140;2022-10-16T07:06:44;3.10;;;1.33;;
75064;SDS011;63646;49.110;9.140;2022-10-16T07:09:09;3.25;;;1.30;;
75064;SDS011;63646;49.110;9.140;2022-10-16T07:11:36;3.72;;;1.58;;
75064;SDS011;63646;49.110;9.140;2022-10-16T07:14:03;3.60;;;1.73;;
75064;SDS011;63646;49.110;9.140;2022-10-16T07:16:30;2.65;;;1.52;;
75064;SDS011;63646;49.110;9.140;2022-10-16T07:18:57;4.30;;;1.50;;
75064;SDS011;63646;49.110;9.140;2022-10-16T07:21:24;4.00;;;1.80;;
75064;SDS011;63646;49.110;9.140;2022-10-16T07:23:54;3.33;;;1.90;;
75064;SDS011;63646;49.110;9.140;2022-10-16T07:26:24;3.40;;;1.63;;
75064;SDS011;63646;49.110;9.140;2022-10-16T07:28:52;2.92;;;1.95;;
75064;SDS011;63646;49.110;9.140;2022-10-16T07:31:18;2.22;;;1.80;;
75064;SDS011;63646;49.110;9.140;2022-10-16T07:33:44;4.55;;;1.77;;
75064;SDS011;63646;49.110;9.140;2022-10-16T07:36:12;4.20;;;1.98;;
75064;SDS011;63646;49.110;9.140;2022-10-16T07:38:38;3.40;;;2.05;;
75064;SDS011;63646;49.110;9.140;2022-10-16T07:41:04;2.90;;;1.60;;
75064;SDS011;63646;49.110;9.140;2022-10-16T07:43:32;3.05;;;1.70;;
75064;SDS011;63646;49.110;9.140;2022-10-16T07:45:58;2.35;;;1.52;;
75064;SDS011;63646;49.110;9.140;2022-10-16T07:48:26;2.05;;;1.70;;
75064;SDS011;63646;49.110;9.140;2022-10-16T07:50:56;2.30;;;1.80;;
75064;SDS011;63646;49.110;9.140;2022-10-16T07:53:25;5.05;;;1.90;;
75064;SDS011;63646;49.110;9.140;2022-10-16T07:55:51;3.72;;;1.67;;
75064;SDS011;63646;49.110;9.140;2022-10-16T07:58:17;2.83;;;1.65;;
75064;SDS011;63646;49.110;9.140;2022-10-16T08:00:42;3.47;;;1.57;;
75064;SDS011;63646;49.110;9.140;2022-10-16T08:03:08;2.03;;;1.50;;
75064;SDS011;63646;49.110;9.140;2022-10-16T08:05:33;2.17;;;1.65;;
75064;SDS011;63646;49.110;9.140;2022-10-16T08:07:59;1.83;;;1.60;;
75064;SDS011;63646;49.110;9.140;2022-10-16T08:12:52;1.75;;;1.60;;
75064;SDS011;63646;49.110;9.140;2022-10-16T08:15:17;2.88;;;1.60;;
75064;SDS011;63646;49.110;9.140;2022-10-16T08:17:44;2.08;;;1.65;;
75064;SDS011;63646;49.110;9.140;2022-10-16T08:20:09;1.85;;;1.65;;
75064;SDS011;63646;49.110;9.140;2022-10-16T08:22:35;2.55;;;1.90;;
75064;SDS011;63646;49.110;9.140;2022-10-16T08:25:01;3.17;;;1.63;;
75064;SDS011;63646;49.110;9.140;2022-10-16T08:27:31;2.10;;;1.40;;
75064;SDS011;63646;49.110;9.140;2022-10-16T08:29:57;2.45;;;1.50;;
75064;SDS011;63646;49.110;9.140;2022-10-16T08:32:22;2.17;;;1.73;;
75064;SDS011;63646;49.110;9.140;2022-10-16T08:34:48;2.08;;;1.65;;
75064;SDS011;63646;49.110;9.140;2022-10-16T08:37:13;1.65;;;1.52;;
75064;SDS011;63646;49.110;9.140;2022-10-16T08:39:38;3.03;;;1.52;;
75064;SDS011;63646;49.110;9.140;2022-10-16T08:47:23;2.95;;;1.63;;
75064;SDS011;63646;49.110;9.140;2022-10-16T08:50:10;2.03;;;1.67;;
75064;SDS011;63646;49.110;9.140;2022-10-16T08:52:41;1.55;;;1.45;;
75064;SDS011;63646;49.110;9.140;2022-10-16T08:55:31;1.90;;;1.50;;
75064;SDS011;63646;49.110;9.140;2022-10-16T08:58:00;1.60;;;1.50;;
75064;SDS011;63646;49.110;9.140;2022-10-16T09:00:26;1.60;;;1.48;;
75064;SDS011;63646;49.110;9.140;2022-10-16T09:02:59;1.65;;;1.50;;
75064;SDS011;63646;49.110;9.140;2022-10-16T09:08:42;2.38;;;1.40;;
75064;SDS011;63646;49.110;9.140;2022-10-16T09:11:34;1.95;;;1.42;;
75064;SDS011;63646;49.110;9.140;2022-10-16T09:17:11;2.03;;;1.60;;
75064;SDS011;63646;49.110;9.140;2022-10-16T09:20:07;1.85;;;1.65;;
75064;SDS011;63646;49.110;9.140;2022-10-16T09:23:04;1.25;;;1.15;;
75064;SDS011;63646;49.110;9.140;2022-10-16T09:25:37;1.63;;;1.50;;
75064;SDS011;63646;49.110;9.140;2022-10-16T09:28:04;2.78;;;1.40;;
75064;SDS011;63646;49.110;9.140;2022-10-16T09:30:30;2.20;;;1.60;;
75064;SDS011;63646;49.110;9.140;2022-10-16T09:32:55;2.15;;;1.33;;
75064;SDS011;63646;49.110;9.140;2022-10-16T09:35:26;2.85;;;1.60;;
75064;SDS011;63646;49.110;9.140;2022-10-16T09:37:56;3.58;;;1.42;;
75064;SDS011;63646;49.110;9.140;2022-10-16T09:43:19;1.65;;;1.50;;
75064;SDS011;63646;49.110;9.140;2022-10-16T09:48:34;1.73;;;1.48;;
75064;SDS011;63646;49.110;9.140;2022-10-16T09:51:19;1.48;;;1.38;;
75064;SDS011;63646;49.110;9.140;2022-10-16T09:53:47;1.73;;;1.55;;
75064;SDS011;63646;49.110;9.140;2022-10-16T09:56:32;1.60;;;1.50;;
75064;SDS011;63646;49.110;9.140;2022-10-16T09:59:02;1.50;;;1.25;;
75064;SDS011;63646;49.110;9.140;2022-10-16T10:04:06;1.70;;;1.40;;
75064;SDS011;63646;49.110;9.140;2022-10-16T10:06:33;1.67;;;1.45;;
75064;SDS011;63646;49.110;9.140;2022-10-16T10:14:13;1.40;;;1.27;;
75064;SDS011;63646;49.110;9.140;2022-10-16T10:19:42;1.85;;;1.42;;
75064;SDS011;63646;49.110;9.140;2022-10-16T10:27:27;1.48;;;1.33;;
75064;SDS011;63646;49.110;9.140;2022-10-16T10:30:23;1.98;;;1.42;;
75064;SDS011;63646;49.110;9.140;2022-10-16T10:35:45;1.48;;;1.33;;
75064;SDS011;63646;49.110;9.140;2022-10-16T10:38:45;1.38;;;1.17;;
75064;SDS011;63646;49.110;9.140;2022-10-16T10:54:59;2.10;;;1.40;;
75064;SDS011;63646;49.110;9.140;2022-10-16T11:08:58;3.38;;;1.48;;
75064;SDS011;63646;49.110;9.140;2022-10-16T11:11:40;2.05;;;1.60;;
75064;SDS011;63646;49.110;9.140;2022-10-16T11:19:28;1.85;;;1.60;;
75064;SDS011;63646;49.110;9.140;2022-10-16T11:27:44;1.85;;;1.60;;
75064;SDS011;63646;49.110;9.140;2022-10-16T11:33:04;1.70;;;1.60;;
75064;SDS011;63646;49.110;9.140;2022-10-16T11:35:53;1.67;;;1.50;;
75064;SDS011;63646;49.110;9.140;2022-10-16T11:40:54;3.55;;;1.60;;
75064;SDS011;63646;49.110;9.140;2022-10-16T11:46:13;1.50;;;1.40;;
75064;SDS011;63646;49.110;9.140;2022-10-16T11:57:09;1.65;;;1.50;;
75064;SDS011;63646;49.110;9.140;2022-10-16T12:04:56;2.17;;;1.63;;
75064;SDS011;63646;49.110;9.140;2022-10-16T12:07:27;2.72;;;1.50;;
75064;SDS011;63646;49.110;9.140;2022-10-16T12:10:18;4.97;;;1.95;;
75064;SDS011;63646;49.110;9.140;2022-10-16T12:12:45;3.25;;;1.80;;
75064;SDS011;63646;49.110;9.140;2022-10-16T12:17:44;2.63;;;1.58;;
75064;SDS011;63646;49.110;9.140;2022-10-16T12:22:47;2.15;;;1.42;;
75064;SDS011;63646;49.110;9.140;2022-10-16T12:25:25;5.85;;;1.42;;
75064;SDS011;63646;49.110;9.140;2022-10-16T12:27:57;4.00;;;1.65;;
75064;SDS011;63646;49.110;9.140;2022-10-16T12:30:56;1.60;;;1.50;;
75064;SDS011;63646;49.110;9.140;2022-10-16T12:33:25;1.70;;;1.60;;
75064;SDS011;63646;49.110;9.140;2022-10-16T12:35:51;3.17;;;1.42;;
75064;SDS011;63646;49.110;9.140;2022-10-16T12:40:44;2.95;;;1.45;;
75064;SDS011;63646;49.110;9.140;2022-10-16T12:48:30;1.60;;;1.42;;
75064;SDS011;63646;49.110;9.140;2022-10-16T12:50:55;2.08;;;1.65;;
75064;SDS011;63646;49.110;9.140;2022-10-16T12:53:22;2.85;;;1.50;;
75064;SDS011;63646;49.110;9.140;2022-10-16T12:58:24;2.70;;;1.42;;
75064;SDS011;63646;49.110;9.140;2022-10-16T13:06:54;1.75;;;1.55;;
75064;SDS011;63646;49.110;9.140;2022-10-16T13:09:49;1.60;;;1.50;;
75064;SDS011;63646;49.110;9.140;2022-10-16T13:15:25;1.90;;;1.40;;
75064;SDS011;63646;49.110;9.140;2022-10-16T13:18:05;1.55;;;1.42;;
75064;SDS011;63646;49.110;9.140;2022-10-16T13:21:00;3.08;;;1.70;;
75064;SDS011;63646;49.110;9.140;2022-10-16T13:26:26;6.55;;;1.67;;
75064;SDS011;63646;49.110;9.140;2022-10-16T13:29:01;7.88;;;1.80;;
75064;SDS011;63646;49.110;9.140;2022-10-16T13:31:27;12.23;;;1.77;;
75064;SDS011;63646;49.110;9.140;2022-10-16T13:33:54;2.80;;;1.73;;
75064;SDS011;63646;49.110;9.140;2022-10-16T13:36:25;4.18;;;1.83;;
75064;SDS011;63646;49.110;9.140;2022-10-16T13:42:10;2.38;;;1.50;;
75064;SDS011;63646;49.110;9.140;2022-10-16T13:44:42;3.78;;;1.83;;
75064;SDS011;63646;49.110;9.140;2022-10-16T13:47:20;3.35;;;1.70;;
75064;SDS011;63646;49.110;9.140;2022-10-16T13:49:58;3.97;;;1.45;;
75064;SDS011;63646;49.110;9.140;2022-10-16T13:52:35;2.53;;;1.80;;
75064;SDS011;63646;49.110;9.140;2022-10-16T13:55:02;2.95;;;1.70;;
75064;SDS011;63646;49.110;9.140;2022-10-16T13:57:27;3.35;;;1.67;;
75064;SDS011;63646;49.110;9.140;2022-10-16T13:59:52;3.60;;;1.80;;
75064;SDS011;63646;49.110;9.140;2022-10-16T14:04:50;4.68;;;1.83;;
75064;SDS011;63646;49.110;9.140;2022-10-16T14:07:22;2.20;;;1.60;;
75064;SDS011;63646;49.110;9.140;2022-10-16T14:09:50;4.00;;;1.52;;
75064;SDS011;63646;49.110;9.140;2022-10-16T14:12:16;4.03;;;1.80;;
75064;SDS011;63646;49.110;9.140;2022-10-16T14:14:46;4.00;;;1.92;;
75064;SDS011;63646;49.110;9.140;2022-10-16T14:17:27;4.68;;;1.67;;
75064;SDS011;63646;49.110;9.140;2022-10-16T14:19:59;5.10;;;1.92;;
75064;SDS011;63646;49.110;9.140;2022-10-16T14:24:53;2.60;;;1.53;;
75064;SDS011;63646;49.110;9.140;2022-10-16T14:27:27;5.65;;;1.70;;
75064;SDS011;63646;49.110;9.140;2022-10-16T14:32:58;3.15;;;1.58;;
75064;SDS011;63646;49.110;9.140;2022-10-16T14:35:28;2.70;;;1.63;;
75064;SDS011;63646;49.110;9.140;2022-10-16T14:37:56;2.60;;;1.60;;
75064;SDS011;63646;49.110;9.140;2022-10-16T14:40:23;2.95;;;1.52;;
75064;SDS011;63646;49.110;9.140;2022-10-16T14:42:51;3.75;;;1.40;;
75064;SDS011;63646;49.110;9.140;2022-10-16T14:45:27;4.72;;;1.65;;
75064;SDS011;63646;49.110;9.140;2022-10-16T14:47:56;3.60;;;1.65;;
75064;SDS011;63646;49.110;9.140;2022-10-16T14:50:23;2.75;;;1.60;;
75064;SDS011;63646;49.110;9.140;2022-10-16T14:52:48;3.28;;;1.40;;
75064;SDS011;63646;49.110;9.140;2022-10-16T14:55:14;5.35;;;1.60;;
75064;SDS011;63646;49.110;9.140;2022-10-16T14:57:40;3.17;;;1.42;;
75064;SDS011;63646;49.110;9.140;2022-10-16T15:00:20;1.67;;;1.50;;
75064;SDS011;63646;49.110;9.140;2022-10-16T15:02:48;1.70;;;1.40;;
75064;SDS011;63646;49.110;9.140;2022-10-16T15:07:48;2.55;;;1.40;;
75064;SDS011;63646;49.110;9.140;2022-10-16T15:10:14;1.75;;;1.42;;
75064;SDS011;63646;49.110;9.140;2022-10-16T15:12:41;2.15;;;1.50;;
75064;SDS011;63646;49.110;9.140;2022-10-16T15:17:47;4.72;;;1.63;;
75064;SDS011;63646;49.110;9.140;2022-10-16T15:20:22;4.13;;;1.65;;
75064;SDS011;63646;49.110;9.140;2022-10-16T15:22:51;2.85;;;1.50;;
75064;SDS011;63646;49.110;9.140;2022-10-16T15:27:55;5.60;;;2.10;;
75064;SDS011;63646;49.110;9.140;2022-10-16T15:32:46;2.90;;;1.80;;
75064;SDS011;63646;49.110;9.140;2022-10-16T15:35:11;2.93;;;1.80;;
75064;SDS011;63646;49.110;9.140;2022-10-16T15:37:36;1.90;;;1.80;;
75064;SDS011;63646;49.110;9.140;2022-10-16T15:40:03;2.13;;;1.77;;
75064;SDS011;63646;49.110;9.140;2022-10-16T15:42:28;8.50;;;2.30;;
75064;SDS011;63646;49.110;9.140;2022-10-16T15:44:54;2.47;;;1.80;;
75064;SDS011;63646;49.110;9.140;2022-10-16T15:47:19;2.75;;;2.13;;
75064;SDS011;63646;49.110;9.140;2022-10-16T15:49:44;3.95;;;1.90;;
75064;SDS011;63646;49.110;9.140;2022-10-16T15:52:10;3.22;;;2.10;;
75064;SDS011;63646;49.110;9.140;2022-10-16T15:54:36;2.78;;;1.80;;
75064;SDS011;63646;49.110;9.140;2022-10-16T15:57:02;4.33;;;1.80;;
75064;SDS011;63646;49.110;9.140;2022-10-16T15:59:27;5.13;;;1.85;;
75064;SDS011;63646;49.110;9.140;2022-10-16T16:01:52;5.07;;;2.10;;
75064;SDS011;63646;49.110;9.140;2022-10-16T16:04:18;3.08;;;2.10;;
75064;SDS011;63646;49.110;9.140;2022-10-16T16:06:43;4.32;;;2.47;;
75064;SDS011;63646;49.110;9.140;2022-10-16T16:09:10;5.63;;;1.88;;
75064;SDS011;63646;49.110;9.140;2022-10-16T16:11:36;2.30;;;2.00;;
75064;SDS011;63646;49.110;9.140;2022-10-16T16:14:03;6.70;;;2.08;;
75064;SDS011;63646;49.110;9.140;2022-10-16T16:16:32;4.15;;;1.77;;
75064;SDS011;63646;49.110;9.140;2022-10-16T16:19:02;2.88;;;1.80;;
75064;SDS011;63646;49.110;9.140;2022-10-16T16:21:27;6.53;;;1.90;;
75064;SDS011;63646;49.110;9.140;2022-10-16T16:23:53;3.80;;;1.83;;
75064;SDS011;63646;49.110;9.140;2022-10-16T16:26:22;3.83;;;1.52;;
75064;SDS011;63646;49.110;9.140;2022-10-16T16:28:57;4.93;;;2.20;;
75064;SDS011;63646;49.110;9.140;2022-10-16T16:31:24;3.65;;;1.63;;
75064;SDS011;63646;49.110;9.140;2022-10-16T16:33:51;2.22;;;1.73;;
75064;SDS011;63646;49.110;9.140;2022-10-16T16:36:17;4.28;;;1.70;;
75064;SDS011;63646;49.110;9.140;2022-10-16T16:38:45;5.30;;;1.90;;
75064;SDS011;63646;49.110;9.140;2022-10-16T16:41:12;6.55;;;1.90;;
75064;SDS011;63646;49.110;9.140;2022-10-16T16:43:43;7.20;;;2.10;;
75064;SDS011;63646;49.110;9.140;2022-10-16T16:46:09;4.68;;;2.03;;
75064;SDS011;63646;49.110;9.140;2022-10-16T16:48:37;3.15;;;2.05;;
75064;SDS011;63646;49.110;9.140;2022-10-16T16:51:10;7.03;;;1.83;;
75064;SDS011;63646;49.110;9.140;2022-10-16T16:53:44;2.42;;;1.60;;
75064;SDS011;63646;49.110;9.140;2022-10-16T16:56:11;4.65;;;1.95;;
75064;SDS011;63646;49.110;9.140;2022-10-16T16:58:37;4.38;;;1.85;;
75064;SDS011;63646;49.110;9.140;2022-10-16T17:01:03;3.03;;;1.60;;
75064;SDS011;63646;49.110;9.140;2022-10-16T17:03:29;4.65;;;1.80;;
75064;SDS011;63646;49.110;9.140;2022-10-16T17:05:59;5.93;;;1.73;;
75064;SDS011;63646;49.110;9.140;2022-10-16T17:08:30;3.58;;;1.85;;
75064;SDS011;63646;49.110;9.140;2022-10-16T17:10:56;3.03;;;2.00;;
75064;SDS011;63646;49.110;9.140;2022-10-16T17:13:25;2.53;;;1.88;;
75064;SDS011;63646;49.110;9.140;2022-10-16T17:15:52;3.90;;;1.60;;
75064;SDS011;63646;49.110;9.140;2022-10-16T17:18:19;3.13;;;1.80;;
75064;SDS011;63646;49.110;9.140;2022-10-16T17:20:46;4.38;;;1.80;;
75064;SDS011;63646;49.110;9.140;2022-10-16T17:23:12;3.80;;;1.83;;
75064;SDS011;63646;49.110;9.140;2022-10-16T17:25:41;5.30;;;1.67;;
75064;SDS011;63646;49.110;9.140;2022-10-16T17:28:07;4.55;;;1.80;;
75064;SDS011;63646;49.110;9.140;2022-10-16T17:30:36;4.43;;;1.80;;
75064;SDS011;63646;49.110;9.140;2022-10-16T17:33:02;4.10;;;1.80;;
75064;SDS011;63646;49.110;9.140;2022-10-16T17:35:28;3.85;;;1.75;;
75064;SDS011;63646;49.110;9.140;2022-10-16T17:37:54;3.85;;;1.88;;
75064;SDS011;63646;49.110;9.140;2022-10-16T17:40:19;4.37;;;1.90;;
75064;SDS011;63646;49.110;9.140;2022-10-16T17:42:45;5.55;;;2.20;;
75064;SDS011;63646;49.110;9.140;2022-10-16T17:45:12;9.30;;;3.17;;
75064;SDS011;63646;49.110;9.140;2022-10-16T17:47:37;8.95;;;2.95;;